KSOP

Moore County Airport

Pinehurst/Southern Pines, North Carolina, USA
METAR KSOP 211956Z AUTO 21007KT 10SM CLR 21/06 A3019 RMK AO2 SLP243 T02060061
Observed Flight Rules
Jan-21 @ 19:56 UTC (30 minutes ago) Visual Flight Rules
Wind Visibility Clouds
210° at 7 knots 10 miles
  • Clear skies
Temperatures Readings
Current 21°C / 70°F
Dewpoint 6°C / 43°F
Humidity 38%
Altimeter 30.19" Hg
Pressure 1024.3 hPa
Elevation 141
METAR KSOP 211956Z AUTO 21007KT 10SM CLR 21/06 A3019 RMK AO2 SLP243 T02060061
Observed Flight Rules
Jan-21 @ 19:56 UTC
(30 minutes ago)
VFR
Wind Visibility
210° at 7 knots 10 miles
Clouds
  • Clear skies
Temperature Dewpoint
21°C / 70°F 6°C / 43°F
Humidity Altimeter Pressure
38% 30.19" Hg 1024.3 hPa